createdAt,value
2023-04-15T00:08:39.683Z,69
2023-04-15T00:13:39.671Z,69
2023-04-15T00:23:39.679Z,69
2023-04-15T00:33:39.672Z,70
2023-04-15T00:38:39.707Z,70
2023-04-15T00:48:39.674Z,70
2023-04-15T00:53:39.705Z,71
2023-04-15T00:58:39.680Z,71
2023-04-15T01:08:39.698Z,71
2023-04-15T01:18:39.689Z,71
2023-04-15T01:23:39.688Z,71
2023-04-15T01:33:39.698Z,72
2023-04-15T01:38:39.704Z,72
2023-04-15T01:48:39.685Z,73
2023-04-15T01:53:39.697Z,73
2023-04-15T02:03:39.823Z,73
2023-04-15T02:13:39.690Z,73
2023-04-15T02:18:39.696Z,73
2023-04-15T02:23:39.706Z,74
2023-04-15T02:33:39.678Z,75
2023-04-15T02:38:39.689Z,75
2023-04-15T02:48:39.709Z,76
2023-04-15T02:58:39.694Z,76
2023-04-15T03:08:39.877Z,76
2023-04-15T03:13:39.693Z,76
2023-04-15T03:23:39.691Z,76
2023-04-15T03:28:39.689Z,76
2023-04-15T03:38:39.682Z,78
2023-04-15T03:43:39.701Z,78
2023-04-15T03:53:39.703Z,78
2023-04-15T04:03:39.936Z,78
2023-04-15T04:08:39.701Z,78
2023-04-15T04:13:39.698Z,78
2023-04-15T04:18:39.702Z,79
2023-04-15T04:28:39.680Z,79
2023-04-15T04:33:39.708Z,80
2023-04-15T04:38:39.698Z,80
2023-04-15T04:58:39.683Z,81
2023-04-15T05:03:39.735Z,81
2023-04-15T05:08:40.515Z,82
2023-04-15T05:13:39.683Z,82
2023-04-15T05:23:39.680Z,82
2023-04-15T05:28:39.678Z,83
2023-04-15T05:33:39.702Z,83
2023-04-15T05:43:39.693Z,82
2023-04-15T05:53:39.693Z,78
2023-04-15T06:03:39.793Z,74
2023-04-15T06:08:39.684Z,73
2023-04-15T06:18:39.700Z,69
2023-04-15T06:23:39.686Z,67
2023-04-15T06:28:39.710Z,66
2023-04-15T06:33:39.726Z,64
2023-04-15T06:38:39.698Z,63
2023-04-15T06:48:39.709Z,64
2023-04-15T06:53:39.716Z,64
2023-04-15T07:03:39.714Z,63
2023-04-15T07:13:39.707Z,62
2023-04-15T07:23:39.733Z,62
2023-04-15T07:33:39.731Z,62
2023-04-15T07:43:39.695Z,62
2023-04-15T07:53:39.686Z,63
2023-04-15T08:03:39.918Z,60
2023-04-15T08:13:39.688Z,61
2023-04-15T08:23:39.792Z,59
2023-04-15T08:33:39.703Z,56
2023-04-15T08:43:39.681Z,55
2023-04-15T08:48:39.678Z,55
2023-04-15T08:58:39.706Z,52
2023-04-15T09:08:39.699Z,54
2023-04-15T09:13:39.693Z,53
2023-04-15T09:18:39.701Z,50
2023-04-15T09:23:39.702Z,53
2023-04-15T09:28:39.724Z,53
2023-04-15T09:38:39.711Z,55
2023-04-15T09:48:39.727Z,53
2023-04-15T09:58:39.687Z,53
2023-04-15T10:08:39.679Z,53
2023-04-15T10:18:39.692Z,53
2023-04-15T10:23:39.677Z,53
2023-04-15T10:28:39.694Z,54
2023-04-15T10:38:39.691Z,54
2023-04-15T10:43:39.698Z,55
2023-04-15T10:53:39.694Z,55
2023-04-15T11:03:39.860Z,56
2023-04-15T11:08:39.697Z,56
2023-04-15T11:18:39.701Z,59
2023-04-15T11:28:39.680Z,61
2023-04-15T11:33:39.686Z,62
2023-04-15T11:38:39.712Z,63
2023-04-15T11:53:39.733Z,63
2023-04-15T11:58:39.716Z,65
2023-04-15T12:03:39.817Z,66
2023-04-15T12:13:39.713Z,67
2023-04-15T12:23:39.704Z,70
2023-04-15T12:28:39.693Z,71
2023-04-15T12:38:39.693Z,73
2023-04-15T12:43:39.678Z,73
2023-04-15T12:53:39.690Z,75
2023-04-15T13:03:39.814Z,76
2023-04-15T13:08:42.745Z,76
2023-04-15T13:18:39.691Z,80
2023-04-15T13:23:39.717Z,81
2023-04-15T13:33:39.691Z,83
2023-04-15T13:43:39.767Z,85
2023-04-15T13:48:39.697Z,85
2023-04-15T13:58:39.679Z,86
2023-04-15T14:03:39.951Z,84
2023-04-15T14:08:39.735Z,84
2023-04-15T14:23:39.700Z,87
2023-04-15T14:28:39.930Z,87
2023-04-15T14:33:39.708Z,87
2023-04-15T14:38:39.723Z,87
2023-04-15T14:48:39.719Z,86
2023-04-15T14:58:39.777Z,88
2023-04-15T15:08:39.693Z,89
2023-04-15T15:13:39.696Z,89
2023-04-15T15:23:39.705Z,89
2023-04-15T15:33:39.675Z,89
2023-04-15T15:38:39.697Z,90
2023-04-15T15:58:39.695Z,90
2023-04-15T16:08:39.728Z,89
2023-04-15T16:18:39.684Z,89
2023-04-15T16:28:39.686Z,90
2023-04-15T16:38:39.682Z,89
2023-04-15T16:48:39.677Z,89
2023-04-15T16:53:39.688Z,89
2023-04-15T17:03:39.825Z,90
2023-04-15T17:13:39.661Z,90
2023-04-15T17:28:39.682Z,91
2023-04-15T17:38:39.680Z,91
2023-04-15T17:43:39.694Z,91
2023-04-15T17:53:39.695Z,92
2023-04-15T17:58:39.706Z,92
2023-04-15T18:03:39.795Z,92
2023-04-15T18:08:39.709Z,93
2023-04-15T18:13:40.453Z,93
2023-04-15T18:23:39.711Z,93
2023-04-15T18:33:39.695Z,93
2023-04-15T18:43:39.684Z,94
2023-04-15T18:53:39.673Z,94
2023-04-15T18:59:10.150Z,94
2023-04-15T19:08:39.674Z,93
2023-04-15T19:13:39.690Z,93
2023-04-15T19:23:39.737Z,93
2023-04-15T19:33:39.703Z,93
2023-04-15T19:38:39.724Z,94
2023-04-15T19:43:39.719Z,94
2023-04-15T19:53:39.729Z,94
2023-04-15T19:58:39.741Z,94
2023-04-15T20:08:39.724Z,94
2023-04-15T20:18:39.680Z,95
2023-04-15T20:28:39.695Z,95
2023-04-15T20:38:39.684Z,95
2023-04-15T20:43:39.698Z,96
2023-04-15T20:48:39.702Z,96
2023-04-15T20:53:39.704Z,96
2023-04-15T20:58:39.713Z,96
2023-04-15T21:08:39.700Z,96
2023-04-15T21:13:39.731Z,96
2023-04-15T21:18:39.785Z,96
2023-04-15T21:28:39.700Z,97
2023-04-15T21:33:39.713Z,97
2023-04-15T21:43:39.686Z,97
2023-04-15T21:53:39.690Z,96
2023-04-15T21:58:39.699Z,96
2023-04-15T22:08:52.460Z,96
2023-04-15T22:18:39.687Z,96
2023-04-15T22:23:39.691Z,96
2023-04-15T22:28:39.692Z,96
2023-04-15T22:38:39.698Z,96
2023-04-15T22:43:39.691Z,97
2023-04-15T22:53:39.669Z,97
2023-04-15T22:58:39.702Z,97
2023-04-15T23:08:39.702Z,97
2023-04-15T23:13:39.707Z,97
2023-04-15T23:23:39.733Z,97
2023-04-15T23:33:39.695Z,97
2023-04-15T23:43:39.682Z,98
2023-04-15T23:53:39.696Z,98
